sensor_id;sensor_type;location;lat;lon;timestamp;P1;durP1;ratioP1;P2;durP2;ratioP2
12844;SDS011;68700;48.534;9.196;2023-06-26T00:01:18;9.07;;;7.93;;
12844;SDS011;68700;48.534;9.196;2023-06-26T00:04:41;8.87;;;7.80;;
12844;SDS011;68700;48.534;9.196;2023-06-26T00:08:04;9.00;;;8.10;;
12844;SDS011;68700;48.534;9.196;2023-06-26T00:11:27;9.27;;;8.33;;
12844;SDS011;68700;48.534;9.196;2023-06-26T00:14:53;9.40;;;7.83;;
12844;SDS011;68700;48.534;9.196;2023-06-26T00:18:14;8.53;;;7.63;;
12844;SDS011;68700;48.534;9.196;2023-06-26T00:21:36;9.20;;;8.20;;
12844;SDS011;68700;48.534;9.196;2023-06-26T00:24:58;9.93;;;7.80;;
12844;SDS011;68700;48.534;9.196;2023-06-26T00:28:22;8.90;;;8.00;;
12844;SDS011;68700;48.534;9.196;2023-06-26T00:31:44;9.63;;;7.63;;
12844;SDS011;68700;48.534;9.196;2023-06-26T00:35:06;9.97;;;8.10;;
12844;SDS011;68700;48.534;9.196;2023-06-26T00:38:28;9.70;;;8.33;;
12844;SDS011;68700;48.534;9.196;2023-06-26T00:41:49;9.83;;;7.30;;
12844;SDS011;68700;48.534;9.196;2023-06-26T00:45:15;9.03;;;7.93;;
12844;SDS011;68700;48.534;9.196;2023-06-26T00:48:37;8.97;;;8.07;;
12844;SDS011;68700;48.534;9.196;2023-06-26T00:51:59;9.87;;;8.20;;
12844;SDS011;68700;48.534;9.196;2023-06-26T00:55:23;8.70;;;7.73;;
12844;SDS011;68700;48.534;9.196;2023-06-26T00:58:45;9.03;;;8.10;;
12844;SDS011;68700;48.534;9.196;2023-06-26T01:02:08;10.60;;;8.50;;
12844;SDS011;68700;48.534;9.196;2023-06-26T01:05:30;10.77;;;8.40;;
12844;SDS011;68700;48.534;9.196;2023-06-26T01:08:52;9.83;;;8.83;;
12844;SDS011;68700;48.534;9.196;2023-06-26T01:12:14;9.80;;;8.70;;
12844;SDS011;68700;48.534;9.196;2023-06-26T01:15:36;8.90;;;7.87;;
12844;SDS011;68700;48.534;9.196;2023-06-26T01:18:59;9.83;;;8.83;;
12844;SDS011;68700;48.534;9.196;2023-06-26T01:22:23;10.77;;;8.80;;
12844;SDS011;68700;48.534;9.196;2023-06-26T01:29:37;9.73;;;8.73;;
12844;SDS011;68700;48.534;9.196;2023-06-26T01:33:01;9.83;;;8.83;;
12844;SDS011;68700;48.534;9.196;2023-06-26T01:36:24;10.03;;;8.63;;
12844;SDS011;68700;48.534;9.196;2023-06-26T01:39:46;9.60;;;7.97;;
12844;SDS011;68700;48.534;9.196;2023-06-26T01:43:10;9.90;;;8.90;;
12844;SDS011;68700;48.534;9.196;2023-06-26T01:46:40;9.80;;;8.80;;
12844;SDS011;68700;48.534;9.196;2023-06-26T01:50:10;10.73;;;8.53;;
12844;SDS011;68700;48.534;9.196;2023-06-26T01:53:38;10.10;;;9.00;;
12844;SDS011;68700;48.534;9.196;2023-06-26T01:57:05;9.97;;;8.97;;
12844;SDS011;68700;48.534;9.196;2023-06-26T02:00:31;9.40;;;8.40;;
12844;SDS011;68700;48.534;9.196;2023-06-26T02:03:53;10.43;;;9.23;;
12844;SDS011;68700;48.534;9.196;2023-06-26T02:07:15;10.47;;;8.50;;
12844;SDS011;68700;48.534;9.196;2023-06-26T02:10:37;9.60;;;8.43;;
12844;SDS011;68700;48.534;9.196;2023-06-26T02:13:59;12.37;;;8.30;;
12844;SDS011;68700;48.534;9.196;2023-06-26T02:17:22;10.03;;;8.87;;
12844;SDS011;68700;48.534;9.196;2023-06-26T02:20:44;10.17;;;8.93;;
12844;SDS011;68700;48.534;9.196;2023-06-26T02:24:05;11.67;;;9.13;;
12844;SDS011;68700;48.534;9.196;2023-06-26T02:27:27;9.37;;;8.07;;
12844;SDS011;68700;48.534;9.196;2023-06-26T02:30:49;9.90;;;8.57;;
12844;SDS011;68700;48.534;9.196;2023-06-26T02:34:14;9.80;;;8.33;;
12844;SDS011;68700;48.534;9.196;2023-06-26T02:37:41;10.60;;;8.93;;
12844;SDS011;68700;48.534;9.196;2023-06-26T02:41:03;10.37;;;8.10;;
12844;SDS011;68700;48.534;9.196;2023-06-26T02:44:25;9.10;;;8.00;;
12844;SDS011;68700;48.534;9.196;2023-06-26T02:47:47;10.40;;;8.70;;
12844;SDS011;68700;48.534;9.196;2023-06-26T02:51:10;10.30;;;7.93;;
12844;SDS011;68700;48.534;9.196;2023-06-26T02:54:32;9.97;;;8.43;;
12844;SDS011;68700;48.534;9.196;2023-06-26T02:57:54;9.03;;;8.13;;
12844;SDS011;68700;48.534;9.196;2023-06-26T03:01:15;12.13;;;8.93;;
12844;SDS011;68700;48.534;9.196;2023-06-26T03:04:37;11.23;;;9.47;;
12844;SDS011;68700;48.534;9.196;2023-06-26T03:08:00;10.40;;;8.77;;
12844;SDS011;68700;48.534;9.196;2023-06-26T03:11:23;11.63;;;9.37;;
12844;SDS011;68700;48.534;9.196;2023-06-26T03:14:44;10.68;;;9.52;;
12844;SDS011;68700;48.534;9.196;2023-06-26T03:18:06;10.93;;;9.23;;
12844;SDS011;68700;48.534;9.196;2023-06-26T03:21:29;10.33;;;8.47;;
12844;SDS011;68700;48.534;9.196;2023-06-26T03:24:52;10.43;;;9.30;;
12844;SDS011;68700;48.534;9.196;2023-06-26T03:28:15;10.50;;;8.93;;
12844;SDS011;68700;48.534;9.196;2023-06-26T03:31:37;9.77;;;8.20;;
12844;SDS011;68700;48.534;9.196;2023-06-26T03:34:59;10.53;;;8.67;;
12844;SDS011;68700;48.534;9.196;2023-06-26T03:38:23;9.33;;;8.43;;
12844;SDS011;68700;48.534;9.196;2023-06-26T03:41:47;11.93;;;9.67;;
12844;SDS011;68700;48.534;9.196;2023-06-26T03:45:09;11.67;;;8.73;;
12844;SDS011;68700;48.534;9.196;2023-06-26T03:48:30;10.20;;;7.80;;
12844;SDS011;68700;48.534;9.196;2023-06-26T03:51:52;9.73;;;8.53;;
12844;SDS011;68700;48.534;9.196;2023-06-26T03:55:14;9.63;;;8.63;;
12844;SDS011;68700;48.534;9.196;2023-06-26T03:58:37;9.87;;;8.67;;
12844;SDS011;68700;48.534;9.196;2023-06-26T04:01:59;10.60;;;8.87;;
12844;SDS011;68700;48.534;9.196;2023-06-26T04:05:21;9.57;;;8.30;;
12844;SDS011;68700;48.534;9.196;2023-06-26T04:08:43;9.70;;;8.70;;
12844;SDS011;68700;48.534;9.196;2023-06-26T04:12:05;9.47;;;8.57;;
12844;SDS011;68700;48.534;9.196;2023-06-26T04:15:29;9.33;;;8.30;;
12844;SDS011;68700;48.534;9.196;2023-06-26T04:18:51;11.07;;;9.07;;
12844;SDS011;68700;48.534;9.196;2023-06-26T04:22:13;9.43;;;8.30;;
12844;SDS011;68700;48.534;9.196;2023-06-26T04:25:35;10.97;;;8.77;;
12844;SDS011;68700;48.534;9.196;2023-06-26T04:28:57;9.23;;;8.30;;
12844;SDS011;68700;48.534;9.196;2023-06-26T04:32:20;8.40;;;7.53;;
12844;SDS011;68700;48.534;9.196;2023-06-26T04:35:43;10.20;;;8.20;;
12844;SDS011;68700;48.534;9.196;2023-06-26T04:39:08;10.77;;;8.23;;
12844;SDS011;68700;48.534;9.196;2023-06-26T04:42:32;10.27;;;8.53;;
12844;SDS011;68700;48.534;9.196;2023-06-26T04:45:54;10.70;;;8.67;;
12844;SDS011;68700;48.534;9.196;2023-06-26T04:49:17;10.00;;;9.00;;
12844;SDS011;68700;48.534;9.196;2023-06-26T04:52:40;11.27;;;8.40;;
12844;SDS011;68700;48.534;9.196;2023-06-26T04:56:01;10.90;;;8.43;;
12844;SDS011;68700;48.534;9.196;2023-06-26T04:59:23;10.17;;;7.87;;
12844;SDS011;68700;48.534;9.196;2023-06-26T05:02:45;9.03;;;8.13;;
12844;SDS011;68700;48.534;9.196;2023-06-26T05:06:08;10.13;;;8.50;;
12844;SDS011;68700;48.534;9.196;2023-06-26T05:09:30;8.90;;;7.80;;
12844;SDS011;68700;48.534;9.196;2023-06-26T05:12:52;12.57;;;8.73;;
12844;SDS011;68700;48.534;9.196;2023-06-26T05:16:14;10.93;;;8.13;;
12844;SDS011;68700;48.534;9.196;2023-06-26T05:19:35;10.57;;;8.37;;
12844;SDS011;68700;48.534;9.196;2023-06-26T05:22:59;8.73;;;7.83;;
12844;SDS011;68700;48.534;9.196;2023-06-26T05:26:21;9.57;;;8.57;;
12844;SDS011;68700;48.534;9.196;2023-06-26T05:29:44;8.77;;;7.90;;
12844;SDS011;68700;48.534;9.196;2023-06-26T05:33:06;9.73;;;8.73;;
12844;SDS011;68700;48.534;9.196;2023-06-26T05:36:31;8.90;;;7.97;;
12844;SDS011;68700;48.534;9.196;2023-06-26T05:39:57;9.30;;;8.40;;
12844;SDS011;68700;48.534;9.196;2023-06-26T05:43:20;10.27;;;8.30;;
12844;SDS011;68700;48.534;9.196;2023-06-26T05:46:42;9.47;;;7.73;;
12844;SDS011;68700;48.534;9.196;2023-06-26T05:50:05;9.23;;;7.83;;
12844;SDS011;68700;48.534;9.196;2023-06-26T05:53:28;9.43;;;8.43;;
12844;SDS011;68700;48.534;9.196;2023-06-26T05:56:52;9.57;;;8.20;;
12844;SDS011;68700;48.534;9.196;2023-06-26T06:00:17;8.40;;;7.60;;
12844;SDS011;68700;48.534;9.196;2023-06-26T06:03:40;9.03;;;8.00;;
12844;SDS011;68700;48.534;9.196;2023-06-26T06:07:02;9.40;;;7.90;;
12844;SDS011;68700;48.534;9.196;2023-06-26T06:10:23;9.17;;;7.63;;
12844;SDS011;68700;48.534;9.196;2023-06-26T06:13:47;8.87;;;7.33;;
12844;SDS011;68700;48.534;9.196;2023-06-26T06:17:09;8.27;;;7.43;;
12844;SDS011;68700;48.534;9.196;2023-06-26T06:20:31;9.37;;;7.40;;
12844;SDS011;68700;48.534;9.196;2023-06-26T06:23:54;8.43;;;7.30;;
12844;SDS011;68700;48.534;9.196;2023-06-26T06:27:15;9.93;;;7.73;;
12844;SDS011;68700;48.534;9.196;2023-06-26T06:30:39;9.27;;;7.30;;
12844;SDS011;68700;48.534;9.196;2023-06-26T06:34:00;8.50;;;7.60;;
12844;SDS011;68700;48.534;9.196;2023-06-26T06:37:22;8.60;;;7.67;;
12844;SDS011;68700;48.534;9.196;2023-06-26T06:40:44;8.63;;;7.83;;
12844;SDS011;68700;48.534;9.196;2023-06-26T06:44:06;7.57;;;6.87;;
12844;SDS011;68700;48.534;9.196;2023-06-26T06:47:29;8.70;;;7.87;;
12844;SDS011;68700;48.534;9.196;2023-06-26T06:50:51;10.03;;;7.37;;
12844;SDS011;68700;48.534;9.196;2023-06-26T06:54:15;7.67;;;6.97;;
12844;SDS011;68700;48.534;9.196;2023-06-26T06:57:37;8.10;;;7.40;;
12844;SDS011;68700;48.534;9.196;2023-06-26T07:00:59;10.07;;;7.70;;
12844;SDS011;68700;48.534;9.196;2023-06-26T07:04:24;7.80;;;7.00;;
12844;SDS011;68700;48.534;9.196;2023-06-26T07:07:47;8.17;;;7.37;;
12844;SDS011;68700;48.534;9.196;2023-06-26T07:11:09;8.30;;;7.43;;
12844;SDS011;68700;48.534;9.196;2023-06-26T07:14:31;8.90;;;7.97;;
12844;SDS011;68700;48.534;9.196;2023-06-26T07:17:53;8.10;;;7.40;;
12844;SDS011;68700;48.534;9.196;2023-06-26T07:21:18;7.87;;;7.03;;
12844;SDS011;68700;48.534;9.196;2023-06-26T07:24:40;8.32;;;7.63;;
12844;SDS011;68700;48.534;9.196;2023-06-26T07:28:02;8.55;;;6.85;;
12844;SDS011;68700;48.534;9.196;2023-06-26T07:31:23;8.20;;;7.50;;
12844;SDS011;68700;48.534;9.196;2023-06-26T07:34:45;7.43;;;6.72;;
12844;SDS011;68700;48.534;9.196;2023-06-26T07:38:08;8.02;;;7.22;;
12844;SDS011;68700;48.534;9.196;2023-06-26T07:41:30;7.65;;;7.00;;
12844;SDS011;68700;48.534;9.196;2023-06-26T07:44:52;7.63;;;6.88;;
12844;SDS011;68700;48.534;9.196;2023-06-26T07:48:14;7.40;;;6.78;;
12844;SDS011;68700;48.534;9.196;2023-06-26T07:51:36;7.63;;;7.00;;
12844;SDS011;68700;48.534;9.196;2023-06-26T07:54:59;6.93;;;6.22;;
12844;SDS011;68700;48.534;9.196;2023-06-26T07:58:21;7.70;;;6.90;;
12844;SDS011;68700;48.534;9.196;2023-06-26T08:01:43;7.90;;;7.20;;
12844;SDS011;68700;48.534;9.196;2023-06-26T08:05:05;7.50;;;6.72;;
12844;SDS011;68700;48.534;9.196;2023-06-26T08:08:27;8.07;;;6.80;;
12844;SDS011;68700;48.534;9.196;2023-06-26T08:11:50;8.68;;;6.97;;
12844;SDS011;68700;48.534;9.196;2023-06-26T08:15:12;8.25;;;6.90;;
12844;SDS011;68700;48.534;9.196;2023-06-26T08:18:33;7.93;;;7.13;;
12844;SDS011;68700;48.534;9.196;2023-06-26T08:21:55;7.38;;;6.88;;
12844;SDS011;68700;48.534;9.196;2023-06-26T08:25:17;7.70;;;6.95;;
12844;SDS011;68700;48.534;9.196;2023-06-26T08:28:40;8.43;;;6.72;;
12844;SDS011;68700;48.534;9.196;2023-06-26T08:32:02;8.77;;;7.18;;
12844;SDS011;68700;48.534;9.196;2023-06-26T08:35:25;7.75;;;6.65;;
12844;SDS011;68700;48.534;9.196;2023-06-26T08:38:46;7.07;;;6.47;;
12844;SDS011;68700;48.534;9.196;2023-06-26T08:42:08;7.40;;;6.75;;
12844;SDS011;68700;48.534;9.196;2023-06-26T08:45:31;6.97;;;6.35;;
12844;SDS011;68700;48.534;9.196;2023-06-26T08:48:54;7.18;;;6.55;;
12844;SDS011;68700;48.534;9.196;2023-06-26T08:52:17;8.30;;;7.28;;
12844;SDS011;68700;48.534;9.196;2023-06-26T08:55:43;7.53;;;6.78;;
12844;SDS011;68700;48.534;9.196;2023-06-26T08:59:06;8.27;;;6.78;;
12844;SDS011;68700;48.534;9.196;2023-06-26T09:02:31;6.90;;;6.40;;
12844;SDS011;68700;48.534;9.196;2023-06-26T09:05:53;7.32;;;6.63;;
12844;SDS011;68700;48.534;9.196;2023-06-26T09:09:15;7.25;;;6.65;;
12844;SDS011;68700;48.534;9.196;2023-06-26T09:12:37;7.40;;;6.80;;
12844;SDS011;68700;48.534;9.196;2023-06-26T09:15:59;7.10;;;6.43;;
12844;SDS011;68700;48.534;9.196;2023-06-26T09:19:26;7.22;;;6.72;;
12844;SDS011;68700;48.534;9.196;2023-06-26T09:22:48;7.30;;;6.70;;
12844;SDS011;68700;48.534;9.196;2023-06-26T09:26:11;7.00;;;6.40;;
12844;SDS011;68700;48.534;9.196;2023-06-26T09:29:32;7.07;;;6.57;;
12844;SDS011;68700;48.534;9.196;2023-06-26T09:32:54;6.97;;;6.43;;
12844;SDS011;68700;48.534;9.196;2023-06-26T09:36:20;7.28;;;6.63;;
12844;SDS011;68700;48.534;9.196;2023-06-26T09:39:42;7.40;;;6.75;;
12844;SDS011;68700;48.534;9.196;2023-06-26T09:43:04;7.50;;;6.90;;
12844;SDS011;68700;48.534;9.196;2023-06-26T09:46:26;7.53;;;6.93;;
12844;SDS011;68700;48.534;9.196;2023-06-26T09:49:48;7.57;;;6.70;;
12844;SDS011;68700;48.534;9.196;2023-06-26T09:53:12;7.65;;;6.95;;
12844;SDS011;68700;48.534;9.196;2023-06-26T09:56:34;7.15;;;6.63;;
12844;SDS011;68700;48.534;9.196;2023-06-26T09:59:57;7.60;;;6.80;;
12844;SDS011;68700;48.534;9.196;2023-06-26T10:03:18;7.65;;;7.03;;
12844;SDS011;68700;48.534;9.196;2023-06-26T10:06:41;7.32;;;6.63;;
12844;SDS011;68700;48.534;9.196;2023-06-26T10:10:09;8.27;;;7.20;;
12844;SDS011;68700;48.534;9.196;2023-06-26T10:13:34;7.40;;;6.80;;
12844;SDS011;68700;48.534;9.196;2023-06-26T10:16:59;7.65;;;6.88;;
12844;SDS011;68700;48.534;9.196;2023-06-26T10:20:24;7.35;;;6.75;;
12844;SDS011;68700;48.534;9.196;2023-06-26T10:23:47;8.10;;;6.70;;
12844;SDS011;68700;48.534;9.196;2023-06-26T10:27:13;7.25;;;6.63;;
12844;SDS011;68700;48.534;9.196;2023-06-26T10:30:38;7.78;;;7.00;;
12844;SDS011;68700;48.534;9.196;2023-06-26T10:34:00;6.75;;;6.25;;
12844;SDS011;68700;48.534;9.196;2023-06-26T10:41:07;7.22;;;6.63;;
12844;SDS011;68700;48.534;9.196;2023-06-26T10:44:40;7.75;;;7.05;;
12844;SDS011;68700;48.534;9.196;2023-06-26T10:48:03;7.32;;;6.70;;
12844;SDS011;68700;48.534;9.196;2023-06-26T10:51:25;7.35;;;6.75;;
12844;SDS011;68700;48.534;9.196;2023-06-26T10:54:47;10.02;;;6.90;;
12844;SDS011;68700;48.534;9.196;2023-06-26T10:58:29;7.43;;;6.65;;
12844;SDS011;68700;48.534;9.196;2023-06-26T11:01:56;7.28;;;6.60;;
12844;SDS011;68700;48.534;9.196;2023-06-26T11:05:25;7.63;;;6.93;;
12844;SDS011;68700;48.534;9.196;2023-06-26T11:08:48;7.40;;;6.70;;
12844;SDS011;68700;48.534;9.196;2023-06-26T11:12:11;7.90;;;7.20;;
12844;SDS011;68700;48.534;9.196;2023-06-26T11:15:33;8.27;;;7.28;;
12844;SDS011;68700;48.534;9.196;2023-06-26T11:18:58;8.27;;;7.57;;
12844;SDS011;68700;48.534;9.196;2023-06-26T11:22:20;9.02;;;6.88;;
12844;SDS011;68700;48.534;9.196;2023-06-26T11:25:44;8.07;;;7.28;;
12844;SDS011;68700;48.534;9.196;2023-06-26T11:29:08;8.10;;;7.30;;
12844;SDS011;68700;48.534;9.196;2023-06-26T11:32:30;8.55;;;7.75;;
12844;SDS011;68700;48.534;9.196;2023-06-26T11:35:54;8.32;;;7.70;;
12844;SDS011;68700;48.534;9.196;2023-06-26T11:39:16;8.32;;;7.72;;
12844;SDS011;68700;48.534;9.196;2023-06-26T11:42:38;8.90;;;7.88;;
12844;SDS011;68700;48.534;9.196;2023-06-26T11:46:00;9.13;;;8.30;;
12844;SDS011;68700;48.534;9.196;2023-06-26T11:49:22;8.52;;;7.85;;
12844;SDS011;68700;48.534;9.196;2023-06-26T11:52:47;9.40;;;8.48;;
12844;SDS011;68700;48.534;9.196;2023-06-26T11:56:15;8.13;;;7.43;;
12844;SDS011;68700;48.534;9.196;2023-06-26T11:59:38;8.85;;;8.00;;
12844;SDS011;68700;48.534;9.196;2023-06-26T12:03:01;8.68;;;8.02;;
12844;SDS011;68700;48.534;9.196;2023-06-26T12:06:23;8.57;;;7.97;;
12844;SDS011;68700;48.534;9.196;2023-06-26T12:09:46;9.07;;;8.35;;
12844;SDS011;68700;48.534;9.196;2023-06-26T12:13:09;8.45;;;7.65;;
12844;SDS011;68700;48.534;9.196;2023-06-26T12:16:31;8.52;;;7.57;;
12844;SDS011;68700;48.534;9.196;2023-06-26T12:19:55;9.75;;;7.70;;
12844;SDS011;68700;48.534;9.196;2023-06-26T12:23:16;8.90;;;7.68;;
12844;SDS011;68700;48.534;9.196;2023-06-26T12:26:40;8.63;;;7.82;;
12844;SDS011;68700;48.534;9.196;2023-06-26T12:30:03;8.27;;;7.68;;
12844;SDS011;68700;48.534;9.196;2023-06-26T12:33:26;8.43;;;7.68;;
12844;SDS011;68700;48.534;9.196;2023-06-26T12:36:48;8.32;;;7.72;;
12844;SDS011;68700;48.534;9.196;2023-06-26T12:40:17;8.80;;;8.00;;
12844;SDS011;68700;48.534;9.196;2023-06-26T12:43:44;7.78;;;7.18;;
12844;SDS011;68700;48.534;9.196;2023-06-26T12:47:05;8.13;;;7.43;;
12844;SDS011;68700;48.534;9.196;2023-06-26T12:50:28;7.65;;;7.15;;
12844;SDS011;68700;48.534;9.196;2023-06-26T12:53:57;9.63;;;8.38;;
12844;SDS011;68700;48.534;9.196;2023-06-26T12:57:19;8.60;;;7.70;;
12844;SDS011;68700;48.534;9.196;2023-06-26T13:00:42;8.60;;;7.90;;
12844;SDS011;68700;48.534;9.196;2023-06-26T13:04:05;8.45;;;7.68;;
12844;SDS011;68700;48.534;9.196;2023-06-26T13:07:28;8.65;;;7.80;;
12844;SDS011;68700;48.534;9.196;2023-06-26T13:10:50;8.15;;;7.47;;
12844;SDS011;68700;48.534;9.196;2023-06-26T13:14:12;8.80;;;8.02;;
12844;SDS011;68700;48.534;9.196;2023-06-26T13:17:35;8.73;;;7.97;;
12844;SDS011;68700;48.534;9.196;2023-06-26T13:20:57;8.40;;;7.72;;
12844;SDS011;68700;48.534;9.196;2023-06-26T13:24:18;8.85;;;8.05;;
12844;SDS011;68700;48.534;9.196;2023-06-26T13:27:40;8.60;;;7.90;;
12844;SDS011;68700;48.534;9.196;2023-06-26T13:31:02;8.07;;;7.45;;
12844;SDS011;68700;48.534;9.196;2023-06-26T13:34:27;8.30;;;7.60;;
12844;SDS011;68700;48.534;9.196;2023-06-26T13:37:50;10.18;;;8.38;;
12844;SDS011;68700;48.534;9.196;2023-06-26T13:41:11;8.52;;;7.82;;
12844;SDS011;68700;48.534;9.196;2023-06-26T13:44:33;8.27;;;7.50;;
12844;SDS011;68700;48.534;9.196;2023-06-26T13:47:55;9.90;;;7.85;;
12844;SDS011;68700;48.534;9.196;2023-06-26T13:51:18;8.18;;;7.47;;
12844;SDS011;68700;48.534;9.196;2023-06-26T13:54:40;8.15;;;7.35;;
12844;SDS011;68700;48.534;9.196;2023-06-26T13:58:02;8.40;;;7.50;;
12844;SDS011;68700;48.534;9.196;2023-06-26T14:01:25;8.25;;;7.50;;
12844;SDS011;68700;48.534;9.196;2023-06-26T14:04:47;7.85;;;7.10;;
12844;SDS011;68700;48.534;9.196;2023-06-26T14:08:10;7.88;;;7.07;;
12844;SDS011;68700;48.534;9.196;2023-06-26T14:11:32;8.32;;;7.63;;
12844;SDS011;68700;48.534;9.196;2023-06-26T14:14:54;8.18;;;7.47;;
12844;SDS011;68700;48.534;9.196;2023-06-26T14:18:16;7.93;;;7.13;;
12844;SDS011;68700;48.534;9.196;2023-06-26T14:21:38;7.90;;;7.07;;
12844;SDS011;68700;48.534;9.196;2023-06-26T14:25:02;7.97;;;7.28;;
12844;SDS011;68700;48.534;9.196;2023-06-26T14:28:24;8.70;;;7.82;;
12844;SDS011;68700;48.534;9.196;2023-06-26T14:31:46;8.13;;;7.10;;
12844;SDS011;68700;48.534;9.196;2023-06-26T14:35:08;9.40;;;7.47;;
12844;SDS011;68700;48.534;9.196;2023-06-26T14:38:29;7.57;;;6.88;;
12844;SDS011;68700;48.534;9.196;2023-06-26T14:41:53;7.93;;;7.10;;
12844;SDS011;68700;48.534;9.196;2023-06-26T14:45:15;8.00;;;7.22;;
12844;SDS011;68700;48.534;9.196;2023-06-26T14:48:36;7.55;;;6.85;;
12844;SDS011;68700;48.534;9.196;2023-06-26T14:51:58;7.20;;;6.47;;
12844;SDS011;68700;48.534;9.196;2023-06-26T14:55:20;6.78;;;6.28;;
12844;SDS011;68700;48.534;9.196;2023-06-26T14:58:43;6.97;;;6.10;;
12844;SDS011;68700;48.534;9.196;2023-06-26T15:02:07;7.35;;;6.65;;
12844;SDS011;68700;48.534;9.196;2023-06-26T15:05:28;6.57;;;5.93;;
12844;SDS011;68700;48.534;9.196;2023-06-26T15:08:50;6.63;;;6.13;;
12844;SDS011;68700;48.534;9.196;2023-06-26T15:12:12;6.60;;;5.90;;
12844;SDS011;68700;48.534;9.196;2023-06-26T15:15:35;5.93;;;5.43;;
12844;SDS011;68700;48.534;9.196;2023-06-26T15:18:57;6.70;;;5.22;;
12844;SDS011;68700;48.534;9.196;2023-06-26T15:22:22;7.35;;;5.35;;
12844;SDS011;68700;48.534;9.196;2023-06-26T15:25:47;6.20;;;5.60;;
12844;SDS011;68700;48.534;9.196;2023-06-26T15:29:11;6.28;;;5.65;;
12844;SDS011;68700;48.534;9.196;2023-06-26T15:32:36;5.45;;;4.72;;
12844;SDS011;68700;48.534;9.196;2023-06-26T15:35:58;6.35;;;4.90;;
12844;SDS011;68700;48.534;9.196;2023-06-26T15:39:19;5.30;;;4.80;;
12844;SDS011;68700;48.534;9.196;2023-06-26T15:42:45;5.35;;;4.85;;
12844;SDS011;68700;48.534;9.196;2023-06-26T15:46:07;5.20;;;4.72;;
12844;SDS011;68700;48.534;9.196;2023-06-26T15:49:30;5.07;;;4.47;;
12844;SDS011;68700;48.534;9.196;2023-06-26T15:52:52;5.95;;;4.50;;
12844;SDS011;68700;48.534;9.196;2023-06-26T15:56:14;6.03;;;4.55;;
12844;SDS011;68700;48.534;9.196;2023-06-26T15:59:36;4.93;;;4.38;;
12844;SDS011;68700;48.534;9.196;2023-06-26T16:02:58;5.47;;;4.82;;
12844;SDS011;68700;48.534;9.196;2023-06-26T16:06:21;4.88;;;4.40;;
12844;SDS011;68700;48.534;9.196;2023-06-26T16:09:43;8.50;;;4.70;;
12844;SDS011;68700;48.534;9.196;2023-06-26T16:13:05;7.30;;;4.75;;
12844;SDS011;68700;48.534;9.196;2023-06-26T16:16:26;7.53;;;5.00;;
12844;SDS011;68700;48.534;9.196;2023-06-26T16:19:48;6.88;;;4.70;;
12844;SDS011;68700;48.534;9.196;2023-06-26T16:23:11;6.35;;;4.45;;
12844;SDS011;68700;48.534;9.196;2023-06-26T16:26:34;5.53;;;4.80;;
12844;SDS011;68700;48.534;9.196;2023-06-26T16:29:56;7.07;;;5.25;;
12844;SDS011;68700;48.534;9.196;2023-06-26T16:33:19;6.23;;;5.30;;
12844;SDS011;68700;48.534;9.196;2023-06-26T16:36:40;5.37;;;4.87;;
12844;SDS011;68700;48.534;9.196;2023-06-26T16:40:04;7.40;;;5.30;;
12844;SDS011;68700;48.534;9.196;2023-06-26T16:43:27;7.63;;;5.53;;
12844;SDS011;68700;48.534;9.196;2023-06-26T16:46:53;6.00;;;5.40;;
12844;SDS011;68700;48.534;9.196;2023-06-26T16:50:16;7.53;;;6.17;;
12844;SDS011;68700;48.534;9.196;2023-06-26T16:53:38;8.33;;;6.00;;
12844;SDS011;68700;48.534;9.196;2023-06-26T16:57:01;9.87;;;6.33;;
12844;SDS011;68700;48.534;9.196;2023-06-26T17:00:23;9.07;;;6.07;;
12844;SDS011;68700;48.534;9.196;2023-06-26T17:03:45;6.93;;;6.23;;
12844;SDS011;68700;48.534;9.196;2023-06-26T17:07:07;7.87;;;5.67;;
12844;SDS011;68700;48.534;9.196;2023-06-26T17:10:29;7.83;;;5.80;;
12844;SDS011;68700;48.534;9.196;2023-06-26T17:13:52;8.73;;;5.60;;
12844;SDS011;68700;48.534;9.196;2023-06-26T17:17:14;9.27;;;5.63;;
12844;SDS011;68700;48.534;9.196;2023-06-26T17:20:37;6.47;;;5.00;;
12844;SDS011;68700;48.534;9.196;2023-06-26T17:23:59;7.67;;;5.10;;
12844;SDS011;68700;48.534;9.196;2023-06-26T17:27:21;6.93;;;4.93;;
12844;SDS011;68700;48.534;9.196;2023-06-26T17:30:48;6.17;;;5.10;;
12844;SDS011;68700;48.534;9.196;2023-06-26T17:34:10;6.53;;;4.63;;
12844;SDS011;68700;48.534;9.196;2023-06-26T17:37:32;8.07;;;5.27;;
12844;SDS011;68700;48.534;9.196;2023-06-26T17:40:54;7.47;;;4.60;;
12844;SDS011;68700;48.534;9.196;2023-06-26T17:44:16;6.60;;;4.40;;
12844;SDS011;68700;48.534;9.196;2023-06-26T17:47:39;7.13;;;4.47;;
12844;SDS011;68700;48.534;9.196;2023-06-26T17:51:02;6.10;;;4.07;;
12844;SDS011;68700;48.534;9.196;2023-06-26T17:54:24;4.57;;;4.17;;
12844;SDS011;68700;48.534;9.196;2023-06-26T17:57:46;3.57;;;3.07;;
12844;SDS011;68700;48.534;9.196;2023-06-26T18:01:08;5.73;;;3.40;;
12844;SDS011;68700;48.534;9.196;2023-06-26T18:04:32;5.47;;;3.23;;
12844;SDS011;68700;48.534;9.196;2023-06-26T18:07:54;4.43;;;3.00;;
12844;SDS011;68700;48.534;9.196;2023-06-26T18:11:15;5.30;;;3.13;;
12844;SDS011;68700;48.534;9.196;2023-06-26T18:14:37;6.13;;;3.10;;
12844;SDS011;68700;48.534;9.196;2023-06-26T18:17:59;4.20;;;2.83;;
12844;SDS011;68700;48.534;9.196;2023-06-26T18:21:23;3.67;;;2.70;;
12844;SDS011;68700;48.534;9.196;2023-06-26T18:24:46;4.87;;;2.50;;
12844;SDS011;68700;48.534;9.196;2023-06-26T18:28:07;5.93;;;3.20;;
12844;SDS011;68700;48.534;9.196;2023-06-26T18:31:31;3.47;;;2.63;;
12844;SDS011;68700;48.534;9.196;2023-06-26T18:34:52;4.73;;;2.80;;
12844;SDS011;68700;48.534;9.196;2023-06-26T18:38:16;5.30;;;2.87;;
12844;SDS011;68700;48.534;9.196;2023-06-26T18:41:38;5.90;;;3.00;;
12844;SDS011;68700;48.534;9.196;2023-06-26T18:45:00;6.73;;;3.10;;
12844;SDS011;68700;48.534;9.196;2023-06-26T18:48:22;4.50;;;2.67;;
12844;SDS011;68700;48.534;9.196;2023-06-26T18:51:43;4.00;;;2.60;;
12844;SDS011;68700;48.534;9.196;2023-06-26T18:55:07;4.63;;;2.80;;
12844;SDS011;68700;48.534;9.196;2023-06-26T18:58:30;3.87;;;2.50;;
12844;SDS011;68700;48.534;9.196;2023-06-26T19:01:52;5.93;;;2.60;;
12844;SDS011;68700;48.534;9.196;2023-06-26T19:05:15;5.10;;;2.23;;
12844;SDS011;68700;48.534;9.196;2023-06-26T19:08:39;5.53;;;2.80;;
12844;SDS011;68700;48.534;9.196;2023-06-26T19:12:03;7.60;;;2.67;;
12844;SDS011;68700;48.534;9.196;2023-06-26T19:15:25;5.33;;;1.93;;
12844;SDS011;68700;48.534;9.196;2023-06-26T19:18:47;5.27;;;2.53;;
12844;SDS011;68700;48.534;9.196;2023-06-26T19:22:11;4.97;;;1.97;;
12844;SDS011;68700;48.534;9.196;2023-06-26T19:25:33;3.70;;;2.20;;
12844;SDS011;68700;48.534;9.196;2023-06-26T19:28:56;5.33;;;2.10;;
12844;SDS011;68700;48.534;9.196;2023-06-26T19:32:18;6.20;;;2.23;;
12844;SDS011;68700;48.534;9.196;2023-06-26T19:35:40;5.00;;;2.10;;
12844;SDS011;68700;48.534;9.196;2023-06-26T19:39:02;2.60;;;1.90;;
12844;SDS011;68700;48.534;9.196;2023-06-26T19:42:23;2.33;;;1.93;;
12844;SDS011;68700;48.534;9.196;2023-06-26T19:45:47;2.80;;;1.63;;
12844;SDS011;68700;48.534;9.196;2023-06-26T19:49:09;5.97;;;2.00;;
12844;SDS011;68700;48.534;9.196;2023-06-26T19:52:31;5.47;;;2.10;;
12844;SDS011;68700;48.534;9.196;2023-06-26T19:55:52;3.50;;;1.73;;
12844;SDS011;68700;48.534;9.196;2023-06-26T19:59:14;5.93;;;2.03;;
12844;SDS011;68700;48.534;9.196;2023-06-26T20:02:37;3.70;;;2.00;;
12844;SDS011;68700;48.534;9.196;2023-06-26T20:05:59;5.23;;;1.90;;
12844;SDS011;68700;48.534;9.196;2023-06-26T20:09:21;4.60;;;1.90;;
12844;SDS011;68700;48.534;9.196;2023-06-26T20:12:46;3.63;;;1.53;;
12844;SDS011;68700;48.534;9.196;2023-06-26T20:16:08;3.77;;;1.90;;
12844;SDS011;68700;48.534;9.196;2023-06-26T20:19:31;5.80;;;1.70;;
12844;SDS011;68700;48.534;9.196;2023-06-26T20:22:53;3.00;;;1.67;;
12844;SDS011;68700;48.534;9.196;2023-06-26T20:26:15;3.03;;;1.40;;